Time;durP1;ratioP1;P1;durP2;ratioP2;P2;SDS_P1;SDS_P2;PMS_P1;PMS_P2;Temp;Humidity;BMP_temperature;BMP_pressure;BME280_temperature;BME280_humidity;BME280_pressure;Samples;Min_cycle;Max_cycle;Signal;HPM_P1;HPM_P2
2023/07/05 00:02:00;;;;;;;1.20;1.20;;;22.80;71.60;;;;;;5068059;28;43519;-74
2023/07/05 00:04:29;;;;;;;0.93;0.93;;;22.80;71.70;;;;;;5070185;28;43427;-74
2023/07/05 00:06:57;;;;;;;1.00;1.00;;;22.80;71.70;;;;;;5069935;28;43982;-75
2023/07/05 00:09:25;;;;;;;1.00;1.00;;;22.70;71.30;;;;;;5068922;28;43395;-75
2023/07/05 00:11:53;;;;;;;1.00;1.00;;;22.70;71.10;;;;;;5068339;28;43999;-73
2023/07/05 00:14:21;;;;;;;1.00;1.00;;;22.70;72.00;;;;;;5070210;28;43427;-74
2023/07/05 00:16:49;;;;;;;0.90;0.90;;;22.70;72.70;;;;;;5067290;28;45782;-75
2023/07/05 00:19:17;;;;;;;1.00;1.00;;;22.70;72.00;;;;;;5069438;28;44093;-74
2023/07/05 00:21:46;;;;;;;1.40;1.10;;;22.70;71.50;;;;;;5068303;28;44071;-74
2023/07/05 00:24:16;;;;;;;0.87;0.87;;;22.60;71.30;;;;;;5069881;28;43509;-74
2023/07/05 00:26:44;;;;;;;1.00;1.00;;;22.60;72.20;;;;;;5062839;28;43767;-75
2023/07/05 00:29:12;;;;;;;0.90;0.90;;;22.70;72.10;;;;;;5062812;28;43938;-75
2023/07/05 00:31:40;;;;;;;1.10;1.10;;;22.80;71.60;;;;;;5068945;28;43403;-74
2023/07/05 00:34:08;;;;;;;0.90;0.90;;;22.90;71.20;;;;;;5064020;28;43408;-75
2023/07/05 00:36:36;;;;;;;0.90;0.90;;;23.00;70.70;;;;;;5062438;28;43833;-74
2023/07/05 00:39:06;;;;;;;1.10;1.10;;;23.10;70.60;;;;;;5062262;28;43503;-75
2023/07/05 00:41:34;;;;;;;0.87;0.87;;;23.10;70.60;;;;;;5067184;28;43975;-74
2023/07/05 00:44:02;;;;;;;0.97;0.97;;;23.10;70.60;;;;;;5069713;28;43415;-75
2023/07/05 00:46:31;;;;;;;1.00;1.00;;;23.00;71.10;;;;;;5067724;28;44795;-73
2023/07/05 00:49:02;;;;;;;1.10;1.10;;;23.00;71.10;;;;;;5067989;28;44453;-73
2023/07/05 00:51:38;;;;;;;0.90;0.90;;;22.90;71.20;;;;;;5066952;28;43434;-74
2023/07/05 00:54:07;;;;;;;0.87;0.87;;;22.90;70.90;;;;;;5069443;28;43412;-75
2023/07/05 00:56:39;;;;;;;1.00;1.00;;;22.80;71.60;;;;;;5068639;28;43947;-75
2023/07/05 00:59:07;;;;;;;0.80;0.80;;;22.80;71.70;;;;;;5068970;28;43870;-75
2023/07/05 01:01:35;;;;;;;1.30;1.30;;;22.80;71.60;;;;;;5077332;28;43385;-72
2023/07/05 01:04:13;;;;;;;1.00;1.00;;;22.80;71.40;;;;;;5080860;28;44183;-72
2023/07/05 01:06:43;;;;;;;0.93;0.93;;;22.70;71.10;;;;;;5081627;28;44851;-72
2023/07/05 01:09:12;;;;;;;1.03;1.03;;;22.70;72.10;;;;;;5083623;28;43988;-72
2023/07/05 01:11:44;;;;;;;1.20;1.20;;;22.70;72.00;;;;;;5081832;28;43383;-72
2023/07/05 01:14:17;;;;;;;1.00;1.00;;;22.70;71.80;;;;;;5083905;28;43494;-72
2023/07/05 01:16:54;;;;;;;0.90;0.90;;;22.70;71.40;;;;;;5081671;28;46242;-73
2023/07/05 01:19:53;;;;;;;0.97;0.97;;;22.60;72.20;;;;;;5083003;28;43343;-71
2023/07/05 01:22:29;;;;;;;1.00;1.00;;;22.70;72.20;;;;;;5058462;28;44048;-73
2023/07/05 01:25:07;;;;;;;0.97;0.97;;;22.80;71.70;;;;;;5081382;28;43555;-72
2023/07/05 01:28:04;;;;;;;1.30;1.20;;;22.90;71.20;;;;;;5081128;28;45232;-71
2023/07/05 01:30:44;;;;;;;1.10;1.10;;;23.10;70.90;;;;;;5078687;28;44617;-72
2023/07/05 01:33:14;;;;;;;0.90;0.90;;;23.10;70.60;;;;;;5082708;28;43364;-71
2023/07/05 01:35:45;;;;;;;1.00;1.00;;;23.10;70.60;;;;;;5082256;28;43449;-71
2023/07/05 01:38:13;;;;;;;1.00;1.00;;;23.00;70.50;;;;;;5098254;28;45596;-72
2023/07/05 01:41:00;;;;;;;1.00;1.00;;;23.00;71.10;;;;;;5080845;28;43403;-72
2023/07/05 01:43:28;;;;;;;1.07;1.07;;;22.90;71.10;;;;;;5076141;28;43455;-71
2023/07/05 01:46:21;;;;;;;1.00;1.00;;;22.90;71.20;;;;;;5081735;28;43403;-72
2023/07/05 01:48:56;;;;;;;1.00;1.00;;;22.80;70.90;;;;;;5080439;28;45987;-71
2023/07/05 01:51:30;;;;;;;1.00;1.00;;;22.80;71.70;;;;;;5082826;28;43434;-72
2023/07/05 01:54:01;;;;;;;0.90;0.90;;;22.80;71.60;;;;;;5082381;28;43872;-73
2023/07/05 01:56:35;;;;;;;0.93;0.93;;;22.80;71.60;;;;;;5083139;28;43445;-72
2023/07/05 01:59:04;;;;;;;0.93;0.93;;;22.70;71.20;;;;;;5080913;28;45845;-72
2023/07/05 02:01:32;;;;;;;0.90;0.90;;;22.70;71.80;;;;;;5078804;28;44923;-71
2023/07/05 02:04:02;;;;;;;0.90;0.90;;;22.70;72.00;;;;;;5080842;28;43556;-71
2023/07/05 02:06:30;;;;;;;0.90;0.90;;;22.80;71.80;;;;;;5076336;28;43425;-72
2023/07/05 02:08:58;;;;;;;0.90;0.90;;;22.90;71.20;;;;;;5081913;28;43619;-72
2023/07/05 02:11:26;;;;;;;0.90;0.90;;;23.00;70.90;;;;;;5082246;28;43448;-72
2023/07/05 02:13:54;;;;;;;1.00;1.00;;;23.10;70.80;;;;;;5081429;28;43425;-72
2023/07/05 02:16:22;;;;;;;1.00;1.00;;;23.10;70.60;;;;;;5080899;28;43605;-72
2023/07/05 02:18:50;;;;;;;1.00;1.00;;;23.00;70.60;;;;;;5091352;28;45788;-72
2023/07/05 02:21:19;;;;;;;0.90;0.90;;;22.90;70.80;;;;;;5097901;27;45622;-72
2023/07/05 02:23:47;;;;;;;0.80;0.80;;;22.90;71.20;;;;;;5080971;28;43839;-72
2023/07/05 02:26:15;;;;;;;0.93;0.93;;;22.90;71.20;;;;;;5075069;28;43394;-72
2023/07/05 02:28:43;;;;;;;0.90;0.90;;;22.90;71.20;;;;;;5081679;28;43591;-72
2023/07/05 02:31:12;;;;;;;1.00;1.00;;;22.80;71.10;;;;;;5080860;28;43783;-72
2023/07/05 02:33:40;;;;;;;0.80;0.80;;;22.70;71.80;;;;;;5080816;28;43448;-72
2023/07/05 02:36:09;;;;;;;0.80;0.80;;;22.70;71.80;;;;;;5082560;28;43660;-72
2023/07/05 02:38:39;;;;;;;0.87;0.87;;;22.70;71.70;;;;;;5082219;28;43854;-72
2023/07/05 02:41:07;;;;;;;1.00;1.00;;;22.70;71.40;;;;;;5082835;28;43732;-72
2023/07/05 02:43:35;;;;;;;0.83;0.83;;;22.70;71.90;;;;;;5083726;28;43375;-72
2023/07/05 02:46:03;;;;;;;0.80;0.80;;;22.70;72.10;;;;;;5085088;28;43470;-72
2023/07/05 02:48:31;;;;;;;1.00;1.00;;;22.70;71.70;;;;;;5085450;28;43839;-72
2023/07/05 02:50:59;;;;;;;0.80;0.80;;;22.90;71.30;;;;;;5085051;28;43412;-72
2023/07/05 02:53:27;;;;;;;0.90;0.90;;;23.00;70.90;;;;;;5083763;28;44065;-72
2023/07/05 02:55:57;;;;;;;0.80;0.80;;;23.10;70.70;;;;;;5083306;28;43507;-72
2023/07/05 02:58:25;;;;;;;0.80;0.80;;;23.00;70.50;;;;;;5083109;28;45372;-72
2023/07/05 03:00:53;;;;;;;0.80;0.80;;;23.00;70.50;;;;;;5084144;28;43900;-72
2023/07/05 03:03:21;;;;;;;0.77;0.77;;;23.00;70.90;;;;;;5083044;28;43466;-72
2023/07/05 03:05:57;;;;;;;0.80;0.80;;;22.90;71.20;;;;;;5083233;28;43479;-72
2023/07/05 03:08:25;;;;;;;0.90;0.90;;;22.90;71.20;;;;;;5079319;28;45691;-71
2023/07/05 03:10:54;;;;;;;0.80;0.80;;;22.80;71.10;;;;;;5084693;28;43421;-71
2023/07/05 03:13:25;;;;;;;0.80;0.80;;;22.80;71.10;;;;;;5083980;28;43434;-72
2023/07/05 03:15:53;;;;;;;0.80;0.80;;;22.70;71.80;;;;;;5083496;28;43546;-71
2023/07/05 03:18:22;;;;;;;1.00;1.00;;;22.70;71.80;;;;;;5079901;28;46052;-71
2023/07/05 03:20:50;;;;;;;0.93;0.93;;;22.70;71.70;;;;;;5083386;28;44784;-71
2023/07/05 03:23:18;;;;;;;0.70;0.70;;;22.70;71.40;;;;;;5082844;28;43414;-71
2023/07/05 03:25:54;;;;;;;0.80;0.80;;;22.70;71.80;;;;;;5083335;28;43422;-71
2023/07/05 03:28:24;;;;;;;1.10;1.10;;;22.70;72.10;;;;;;5083551;28;43872;-70
2023/07/05 03:30:57;;;;;;;0.80;0.80;;;22.70;71.80;;;;;;5090026;28;44643;-72
2023/07/05 03:33:25;;;;;;;0.90;0.90;;;22.80;71.20;;;;;;5100206;28;43360;-72
2023/07/05 03:35:55;;;;;;;0.87;0.87;;;23.00;70.90;;;;;;5081999;28;43474;-72
2023/07/05 03:38:24;;;;;;;0.87;0.87;;;23.10;70.70;;;;;;5081055;28;44211;-72
2023/07/05 03:41:00;;;;;;;0.97;0.97;;;23.00;70.60;;;;;;5098594;28;43326;-72
2023/07/05 03:43:30;;;;;;;0.87;0.87;;;23.00;70.60;;;;;;5082294;28;43487;-72
2023/07/05 03:45:59;;;;;;;0.90;0.90;;;22.90;70.90;;;;;;5076996;28;43387;-72
2023/07/05 03:48:27;;;;;;;0.90;0.90;;;22.90;71.20;;;;;;5077791;28;43667;-72
2023/07/05 03:50:55;;;;;;;0.80;0.80;;;22.90;71.20;;;;;;5076248;28;43906;-72
2023/07/05 03:53:23;;;;;;;0.90;0.90;;;22.80;71.10;;;;;;5081161;28;43885;-72
2023/07/05 03:55:52;;;;;;;0.97;0.97;;;22.80;71.10;;;;;;5082547;28;43340;-72
2023/07/05 03:58:20;;;;;;;1.53;0.90;;;22.70;72.40;;;;;;5081159;28;46013;-72
2023/07/05 04:00:49;;;;;;;1.00;1.00;;;22.70;71.70;;;;;;5082043;28;44487;-72
2023/07/05 04:03:17;;;;;;;1.27;1.20;;;22.70;71.60;;;;;;5081573;28;43456;-72
2023/07/05 04:05:46;;;;;;;1.73;1.63;;;22.70;71.30;;;;;;5082393;28;43575;-72
2023/07/05 04:08:14;;;;;;;1.60;1.50;;;22.70;72.00;;;;;;5083273;28;43799;-72
2023/07/05 04:10:47;;;;;;;1.80;1.70;;;22.70;72.00;;;;;;5083713;28;43432;-72
2023/07/05 04:13:15;;;;;;;1.80;1.70;;;22.70;72.00;;;;;;5076685;28;43438;-72
2023/07/05 04:15:43;;;;;;;1.90;1.80;;;22.70;71.60;;;;;;5081637;28;43586;-72
2023/07/05 04:18:12;;;;;;;3.20;2.13;;;22.60;72.20;;;;;;5082931;28;43939;-72
2023/07/05 04:20:40;;;;;;;2.93;2.17;;;22.60;72.20;;;;;;5083689;28;43339;-72
2023/07/05 04:23:08;;;;;;;3.20;2.27;;;22.70;72.10;;;;;;5082645;28;43378;-72
2023/07/05 04:25:36;;;;;;;3.40;2.53;;;22.80;71.60;;;;;;5084259;28;43395;-72
2023/07/05 04:28:05;;;;;;;5.53;2.60;;;22.90;71.20;;;;;;5081798;28;45733;-72
2023/07/05 04:30:33;;;;;;;3.67;2.67;;;23.00;70.80;;;;;;5081740;28;44446;-72
2023/07/05 04:33:01;;;;;;;3.30;2.43;;;23.10;70.70;;;;;;5077684;28;43465;-72
2023/07/05 04:35:30;;;;;;;2.50;2.30;;;23.00;70.60;;;;;;5076021;28;43454;-72
2023/07/05 04:37:58;;;;;;;6.40;2.70;;;23.00;70.60;;;;;;5081670;28;43606;-72
2023/07/05 04:40:26;;;;;;;4.07;2.60;;;22.90;71.20;;;;;;5079858;28;44032;-72
2023/07/05 04:42:54;;;;;;;2.63;2.37;;;22.90;71.20;;;;;;5080992;28;43530;-72
2023/07/05 04:45:22;;;;;;;4.40;2.90;;;22.80;71.10;;;;;;5081212;28;43419;-72
2023/07/05 04:47:50;;;;;;;4.03;3.10;;;22.80;71.00;;;;;;5079208;28;45848;-72
2023/07/05 04:50:19;;;;;;;3.27;2.57;;;22.70;71.00;;;;;;5074601;28;43512;-72
2023/07/05 04:52:48;;;;;;;4.53;2.80;;;22.70;71.50;;;;;;5082769;28;43379;-72
2023/07/05 04:55:16;;;;;;;2.87;2.67;;;22.70;71.50;;;;;;5081597;28;43495;-72
2023/07/05 04:57:44;;;;;;;5.20;3.13;;;22.70;71.40;;;;;;5080286;28;43842;-72
2023/07/05 05:00:13;;;;;;;3.50;2.90;;;22.70;71.20;;;;;;5082964;28;43418;-72
2023/07/05 05:02:41;;;;;;;3.90;2.73;;;22.70;71.90;;;;;;5081423;28;43447;-72
2023/07/05 05:05:10;;;;;;;3.90;3.00;;;22.60;71.90;;;;;;5083431;28;43347;-72
2023/07/05 05:07:38;;;;;;;3.73;2.73;;;22.80;71.70;;;;;;5082972;28;43595;-72
2023/07/05 05:10:08;;;;;;;4.30;2.80;;;22.90;71.20;;;;;;5082914;28;43974;-72
2023/07/05 05:12:36;;;;;;;3.87;2.80;;;23.00;70.80;;;;;;5081389;28;43422;-72
2023/07/05 05:15:05;;;;;;;4.27;2.70;;;23.00;70.60;;;;;;5082164;28;43438;-72
2023/07/05 05:17:33;;;;;;;3.70;2.50;;;23.00;70.60;;;;;;5081758;28;43765;-72
2023/07/05 05:20:01;;;;;;;3.20;2.63;;;23.00;70.50;;;;;;5080503;28;44609;-72
2023/07/05 05:22:29;;;;;;;3.60;2.80;;;22.90;71.10;;;;;;5081337;28;43380;-72
2023/07/05 05:24:57;;;;;;;4.10;2.90;;;22.90;71.20;;;;;;5083644;28;43377;-72
2023/07/05 05:27:27;;;;;;;2.70;2.60;;;22.80;71.20;;;;;;5081063;28;45205;-72
2023/07/05 05:29:55;;;;;;;3.07;2.70;;;22.80;71.10;;;;;;5083018;28;43390;-72
2023/07/05 05:32:23;;;;;;;2.87;2.60;;;22.70;71.00;;;;;;5080265;28;43488;-72
2023/07/05 05:34:51;;;;;;;4.70;3.33;;;22.70;71.80;;;;;;5082594;28;43477;-72
2023/07/05 05:37:19;;;;;;;2.83;2.60;;;22.70;71.80;;;;;;5082499;28;43693;-72
2023/07/05 05:39:47;;;;;;;2.70;2.60;;;22.70;71.70;;;;;;5082479;28;44110;-72
2023/07/05 05:42:15;;;;;;;3.00;2.70;;;22.70;71.40;;;;;;5082118;28;43432;-72
2023/07/05 05:44:44;;;;;;;2.87;2.57;;;22.60;71.40;;;;;;5083874;28;43420;-72
2023/07/05 05:47:12;;;;;;;3.13;2.80;;;22.60;72.10;;;;;;5080685;28;45535;-72
2023/07/05 05:49:40;;;;;;;3.60;3.20;;;22.70;72.00;;;;;;5081703;28;43474;-72
2023/07/05 05:52:08;;;;;;;2.77;2.50;;;22.80;71.60;;;;;;5082145;28;43365;-72
2023/07/05 05:54:36;;;;;;;3.07;2.60;;;22.90;71.10;;;;;;5083359;28;43312;-72
2023/07/05 05:57:05;;;;;;;2.80;2.60;;;23.00;70.80;;;;;;5082495;28;43609;-72
2023/07/05 05:59:33;;;;;;;2.63;2.43;;;23.00;70.60;;;;;;5081606;28;44430;-72
2023/07/05 06:02:02;;;;;;;2.63;2.40;;;23.00;70.60;;;;;;5081725;28;43340;-72
2023/07/05 06:04:31;;;;;;;3.00;2.40;;;22.90;70.50;;;;;;5083300;28;43442;-72
2023/07/05 06:06:58;;;;;;;2.50;2.40;;;22.90;71.20;;;;;;5080314;28;45422;-72
2023/07/05 06:09:27;;;;;;;2.97;2.60;;;22.80;71.10;;;;;;5082888;28;43812;-72
2023/07/05 06:11:55;;;;;;;2.87;2.57;;;22.80;71.10;;;;;;5082474;28;43441;-72
2023/07/05 06:14:24;;;;;;;2.40;2.30;;;22.80;71.10;;;;;;5084605;28;43562;-72
2023/07/05 06:16:52;;;;;;;2.83;2.60;;;22.70;71.10;;;;;;5085146;28;45656;-72
2023/07/05 06:19:21;;;;;;;2.60;2.40;;;22.70;71.70;;;;;;5085976;28;43419;-72
2023/07/05 06:21:49;;;;;;;2.43;2.23;;;22.70;71.70;;;;;;5084988;28;43475;-72
2023/07/05 06:24:17;;;;;;;2.40;2.30;;;22.70;71.50;;;;;;5082181;28;43781;-72
2023/07/05 06:26:45;;;;;;;2.50;2.30;;;22.70;71.30;;;;;;5084069;28;45877;-72
2023/07/05 06:29:13;;;;;;;2.83;2.60;;;22.60;71.70;;;;;;5084830;28;43368;-72
2023/07/05 06:31:41;;;;;;;2.40;2.23;;;22.60;71.90;;;;;;5086171;28;43415;-72
2023/07/05 06:34:09;;;;;;;2.30;2.20;;;22.70;71.70;;;;;;5085356;28;43424;-72
2023/07/05 06:36:38;;;;;;;2.43;2.33;;;22.80;71.10;;;;;;5083644;28;45891;-72
2023/07/05 06:39:07;;;;;;;2.67;2.57;;;22.90;70.70;;;;;;5084495;28;44618;-72
2023/07/05 06:41:35;;;;;;;2.50;2.40;;;23.00;70.50;;;;;;5083941;28;43435;-72
2023/07/05 06:44:04;;;;;;;3.33;3.07;;;23.00;70.30;;;;;;5086827;28;43450;-72
2023/07/05 06:46:32;;;;;;;2.90;2.70;;;23.00;70.40;;;;;;5086143;28;43764;-72
2023/07/05 06:49:00;;;;;;;2.40;2.30;;;22.90;70.60;;;;;;5085952;28;43464;-72
2023/07/05 06:51:28;;;;;;;2.40;2.27;;;22.90;71.00;;;;;;5086803;28;43395;-72
2023/07/05 06:53:57;;;;;;;2.53;2.43;;;22.80;70.90;;;;;;5087053;28;43414;-72
2023/07/05 06:56:25;;;;;;;2.47;2.30;;;22.80;71.00;;;;;;5084162;28;43978;-72
2023/07/05 06:58:53;;;;;;;2.27;2.17;;;22.80;70.80;;;;;;5086811;28;43491;-72
2023/07/05 07:01:21;;;;;;;2.47;2.33;;;22.70;71.50;;;;;;5086398;28;43369;-72
2023/07/05 07:03:49;;;;;;;2.70;2.50;;;22.70;71.50;;;;;;5084826;28;43408;-72
2023/07/05 07:06:17;;;;;;;2.40;2.20;;;22.70;71.50;;;;;;5086558;28;43750;-72
2023/07/05 07:08:45;;;;;;;2.60;2.40;;;22.70;71.20;;;;;;5086153;28;43449;-72
2023/07/05 07:11:15;;;;;;;2.40;2.30;;;22.60;71.20;;;;;;5086438;28;43487;-72
2023/07/05 07:13:43;;;;;;;2.30;2.20;;;22.60;72.00;;;;;;5085259;28;43392;-72
2023/07/05 07:16:11;;;;;;;2.60;2.50;;;22.60;71.70;;;;;;5086254;28;43852;-72
2023/07/05 07:18:42;;;;;;;2.97;2.70;;;22.80;71.40;;;;;;5086248;28;43433;-72
2023/07/05 07:21:10;;;;;;;2.53;2.43;;;22.90;70.90;;;;;;5084720;28;43471;-72
2023/07/05 07:23:38;;;;;;;2.30;2.20;;;23.00;70.60;;;;;;5081885;28;43492;-72
2023/07/05 07:26:07;;;;;;;2.30;2.20;;;23.00;70.50;;;;;;5084442;28;43883;-72
2023/07/05 07:28:36;;;;;;;2.20;2.10;;;22.90;70.30;;;;;;5086097;28;43315;-72
2023/07/05 07:31:11;;;;;;;2.00;1.90;;;22.90;70.60;;;;;;5085113;28;43452;-72
2023/07/05 07:33:39;;;;;;;2.37;2.27;;;22.80;71.10;;;;;;5084746;28;43638;-72
2023/07/05 07:36:11;;;;;;;2.10;2.00;;;22.80;71.10;;;;;;5086203;28;43730;-72
2023/07/05 07:38:39;;;;;;;2.40;2.30;;;22.80;71.10;;;;;;5084865;28;44719;-72
2023/07/05 07:41:12;;;;;;;2.40;2.30;;;22.70;71.00;;;;;;5086001;28;43445;-72
2023/07/05 07:43:42;;;;;;;2.67;2.47;;;22.70;71.60;;;;;;5084581;28;43423;-72
2023/07/05 07:46:10;;;;;;;2.17;2.07;;;22.60;71.60;;;;;;5086299;28;43599;-72
2023/07/05 07:48:40;;;;;;;2.13;2.03;;;22.60;71.60;;;;;;5086255;28;43743;-72
2023/07/05 07:51:08;;;;;;;2.00;2.00;;;22.60;71.30;;;;;;5085116;28;43376;-72
2023/07/05 07:53:39;;;;;;;2.00;2.00;;;22.60;71.20;;;;;;5085739;28;43534;-72
2023/07/05 07:56:12;;;;;;;2.40;2.30;;;22.60;72.00;;;;;;5084470;28;45809;-72
2023/07/05 07:58:42;;;;;;;2.07;2.03;;;22.60;71.70;;;;;;5086407;28;43469;-73
2023/07/05 08:01:13;;;;;;;1.90;1.90;;;22.70;71.40;;;;;;5085790;28;43378;-72
2023/07/05 08:03:41;;;;;;;2.23;2.13;;;22.90;71.00;;;;;;5086437;28;43479;-72
2023/07/05 08:06:10;;;;;;;2.20;2.10;;;23.00;70.50;;;;;;5084682;28;46166;-72
2023/07/05 08:08:38;;;;;;;2.10;2.10;;;23.00;70.40;;;;;;5083048;28;43366;-72
2023/07/05 08:11:08;;;;;;;2.03;1.93;;;23.00;70.40;;;;;;5084772;28;43462;-72
2023/07/05 08:13:36;;;;;;;2.17;2.07;;;22.90;70.30;;;;;;5085180;28;43451;-72
2023/07/05 08:16:05;;;;;;;2.53;2.43;;;22.80;71.10;;;;;;5086601;28;43880;-72
2023/07/05 08:18:33;;;;;;;2.13;2.10;;;22.80;71.00;;;;;;5083558;28;43347;-72
2023/07/05 08:21:02;;;;;;;2.13;2.00;;;22.80;71.10;;;;;;5084853;28;43369;-72
2023/07/05 08:23:30;;;;;;;2.07;2.03;;;22.70;70.90;;;;;;5085861;28;43407;-72
2023/07/05 08:26:00;;;;;;;2.33;2.23;;;22.70;71.30;;;;;;5085829;28;43650;-72
2023/07/05 08:28:28;;;;;;;2.07;2.07;;;22.60;71.60;;;;;;5085710;28;43360;-71
2023/07/05 08:30:57;;;;;;;2.00;1.90;;;22.60;71.60;;;;;;5083973;28;43424;-72
2023/07/05 08:33:27;;;;;;;2.17;2.13;;;22.60;71.30;;;;;;5101897;28;43456;-71
2023/07/05 08:36:07;;;;;;;2.30;2.20;;;22.60;71.50;;;;;;5084409;28;43771;-72
2023/07/05 08:38:35;;;;;;;2.40;2.30;;;22.60;71.90;;;;;;5085012;28;43429;-72
2023/07/05 08:41:06;;;;;;;2.17;2.07;;;22.60;71.50;;;;;;5085483;28;43368;-72
2023/07/05 08:43:35;;;;;;;1.83;1.80;;;22.80;71.20;;;;;;5085343;28;43415;-73
2023/07/05 08:46:05;;;;;;;2.33;2.23;;;22.90;70.80;;;;;;5084971;28;43795;-73
2023/07/05 08:48:34;;;;;;;2.03;2.03;;;22.90;70.40;;;;;;5084911;28;43416;-72
2023/07/05 08:51:03;;;;;;;2.07;1.97;;;23.00;70.50;;;;;;5086103;28;43399;-73
2023/07/05 08:53:33;;;;;;;2.30;2.20;;;22.90;70.40;;;;;;5085603;28;43424;-72
2023/07/05 08:56:03;;;;;;;2.30;2.20;;;22.80;70.60;;;;;;5083076;28;43997;-72
2023/07/05 08:58:36;;;;;;;1.90;1.90;;;22.80;71.20;;;;;;5083417;28;44743;-72
2023/07/05 09:01:05;;;;;;;1.70;1.70;;;22.70;71.10;;;;;;5084217;28;43502;-71
2023/07/05 09:03:34;;;;;;;1.70;1.70;;;22.70;71.00;;;;;;5083642;28;43408;-71
2023/07/05 09:06:18;;;;;;;1.80;1.80;;;22.70;71.00;;;;;;5083342;28;45680;-71
2023/07/05 09:09:12;;;;;;;2.20;2.10;;;22.60;71.60;;;;;;5082776;28;45040;-71
2023/07/05 09:11:46;;;;;;;1.90;1.90;;;22.60;71.60;;;;;;5079787;28;43442;-72
2023/07/05 09:14:22;;;;;;;1.80;1.80;;;22.60;71.50;;;;;;5084043;28;43562;-71
2023/07/05 09:16:52;;;;;;;1.90;1.90;;;22.60;71.30;;;;;;5081021;28;43873;-72
2023/07/05 09:19:26;;;;;;;1.80;1.80;;;22.50;71.80;;;;;;5082961;28;44718;-73
2023/07/05 09:21:56;;;;;;;1.90;1.90;;;22.50;71.90;;;;;;5083125;28;43344;-72
2023/07/05 09:24:26;;;;;;;1.93;1.93;;;22.60;71.60;;;;;;5084400;28;43480;-72
2023/07/05 09:26:56;;;;;;;2.10;2.00;;;22.70;71.10;;;;;;5083459;28;45669;-72
2023/07/05 09:29:30;;;;;;;1.80;1.80;;;22.90;70.90;;;;;;5083278;28;44655;-71
2023/07/05 09:31:59;;;;;;;1.90;1.90;;;22.90;70.60;;;;;;5082765;28;43433;-71
2023/07/05 09:34:31;;;;;;;1.80;1.80;;;22.90;70.60;;;;;;5083178;28;43475;-71
2023/07/05 09:36:59;;;;;;;1.80;1.80;;;22.90;70.50;;;;;;5076474;28;45919;-71
2023/07/05 09:39:33;;;;;;;2.10;2.00;;;22.70;71.00;;;;;;5082106;28;44657;-71
2023/07/05 09:42:02;;;;;;;2.20;2.10;;;22.70;71.00;;;;;;5082511;28;44523;-71
2023/07/05 09:44:32;;;;;;;1.60;1.60;;;22.70;71.10;;;;;;5083009;28;43476;-72
2023/07/05 09:47:00;;;;;;;1.93;1.93;;;22.70;71.00;;;;;;5082943;28;45711;-71
2023/07/05 09:49:29;;;;;;;1.90;1.80;;;22.60;71.10;;;;;;5082754;28;44805;-72
2023/07/05 09:51:59;;;;;;;1.87;1.83;;;22.60;71.80;;;;;;5082109;28;43356;-71
2023/07/05 09:54:29;;;;;;;1.60;1.60;;;22.60;71.60;;;;;;5083487;28;43511;-71
2023/07/05 09:56:59;;;;;;;1.87;1.80;;;22.60;71.40;;;;;;5082496;28;43905;-72
2023/07/05 09:59:28;;;;;;;1.67;1.67;;;22.60;71.30;;;;;;5083544;28;43399;-71
2023/07/05 10:01:57;;;;;;;1.83;1.73;;;22.50;71.60;;;;;;5084077;28;43450;-72
2023/07/05 10:04:26;;;;;;;1.50;1.50;;;22.50;72.00;;;;;;5084371;28;43478;-71
2023/07/05 10:06:55;;;;;;;1.80;1.80;;;22.60;71.80;;;;;;5083003;28;45702;-72
2023/07/05 10:09:24;;;;;;;1.67;1.67;;;22.70;71.30;;;;;;5084282;28;43378;-72
2023/07/05 10:11:53;;;;;;;1.60;1.60;;;22.80;70.90;;;;;;5083093;28;43363;-71
2023/07/05 10:14:22;;;;;;;1.60;1.60;;;22.90;70.60;;;;;;5083987;28;43585;-71
2023/07/05 10:16:52;;;;;;;2.00;2.00;;;22.90;70.50;;;;;;5084083;28;45610;-71
2023/07/05 10:19:29;;;;;;;1.90;1.87;;;22.90;70.40;;;;;;5084635;28;43811;-72
2023/07/05 10:22:07;;;;;;;1.63;1.63;;;22.80;70.60;;;;;;5083790;28;43511;-72
2023/07/05 10:24:40;;;;;;;1.90;1.47;;;22.70;71.10;;;;;;5085646;28;43446;-73
2023/07/05 10:27:19;;;;;;;1.67;1.67;;;22.70;71.00;;;;;;5084892;28;43764;-73
2023/07/05 10:29:48;;;;;;;1.50;1.50;;;22.70;71.00;;;;;;5084883;28;44343;-72
2023/07/05 10:32:19;;;;;;;1.60;1.60;;;22.60;70.90;;;;;;5084744;28;43431;-72
2023/07/05 10:34:49;;;;;;;1.60;1.60;;;22.60;71.70;;;;;;5083195;28;43501;-72
2023/07/05 10:37:28;;;;;;;1.63;1.63;;;22.60;71.70;;;;;;5084375;28;43828;-72
2023/07/05 10:39:56;;;;;;;1.63;1.63;;;22.60;71.40;;;;;;5083600;28;45073;-72
2023/07/05 10:42:25;;;;;;;1.50;1.50;;;22.60;71.30;;;;;;5084586;28;43456;-73
2023/07/05 10:44:53;;;;;;;1.57;1.57;;;22.50;71.70;;;;;;5083494;28;43417;-72
2023/07/05 10:47:21;;;;;;;1.67;1.67;;;22.50;72.00;;;;;;5084549;28;43604;-72
2023/07/05 10:49:51;;;;;;;1.57;1.57;;;22.60;71.70;;;;;;5084703;28;43398;-73
2023/07/05 10:52:19;;;;;;;1.57;1.57;;;22.70;71.30;;;;;;5083974;28;43440;-72
2023/07/05 10:54:51;;;;;;;1.70;1.70;;;22.80;70.90;;;;;;5083433;28;43414;-72
2023/07/05 10:57:21;;;;;;;1.53;1.53;;;22.90;70.70;;;;;;5084112;28;43623;-72
2023/07/05 10:59:52;;;;;;;1.50;1.50;;;22.80;70.50;;;;;;5083991;28;44688;-71
2023/07/05 11:02:37;;;;;;;1.70;1.70;;;22.80;70.50;;;;;;5086247;28;43992;-72
2023/07/05 11:05:16;;;;;;;1.40;1.40;;;22.70;71.00;;;;;;5088333;28;43459;-72
2023/07/05 11:07:44;;;;;;;1.87;1.77;;;22.70;71.30;;;;;;5081772;28;45705;-72
2023/07/05 11:10:15;;;;;;;1.57;1.57;;;22.70;71.10;;;;;;5081753;28;43395;-72
2023/07/05 11:12:44;;;;;;;1.33;1.33;;;22.60;70.90;;;;;;5086780;28;43466;-72
2023/07/05 11:15:12;;;;;;;1.37;1.37;;;22.60;70.90;;;;;;5088992;28;43383;-72
2023/07/05 11:17:40;;;;;;;1.60;1.60;;;22.60;71.90;;;;;;5084711;28;43870;-73
2023/07/05 11:20:42;;;;;;;1.30;1.30;;;22.60;71.60;;;;;;5085577;28;44828;-73
2023/07/05 11:23:10;;;;;;;1.60;1.60;;;22.70;71.30;;;;;;5082205;28;43424;-72
2023/07/05 11:25:59;;;;;;;1.60;1.60;;;22.70;71.10;;;;;;5087026;28;44056;-72
2023/07/05 11:28:34;;;;;;;1.60;1.60;;;22.70;71.00;;;;;;5087756;28;43827;-72
2023/07/05 11:31:02;;;;;;;1.50;1.50;;;22.70;71.50;;;;;;5087030;28;43435;-71
2023/07/05 11:33:30;;;;;;;1.63;1.63;;;22.60;71.50;;;;;;5086784;28;43426;-71
2023/07/05 11:36:05;;;;;;;1.40;1.40;;;22.60;71.30;;;;;;5087306;28;44014;-72
2023/07/05 11:38:57;;;;;;;1.43;1.43;;;22.60;71.00;;;;;;5086731;28;44141;-72
2023/07/05 11:41:34;;;;;;;1.40;1.40;;;22.60;71.40;;;;;;5082863;28;43402;-72
2023/07/05 11:44:03;;;;;;;1.50;1.50;;;22.60;71.90;;;;;;5083994;28;43443;-72
2023/07/05 11:46:36;;;;;;;1.60;1.50;;;22.60;71.80;;;;;;5086558;28;43505;-72
2023/07/05 11:49:34;;;;;;;1.57;1.57;;;22.50;71.40;;;;;;5083903;28;45974;-71
2023/07/05 11:52:07;;;;;;;1.77;1.60;;;22.50;71.30;;;;;;5085193;28;44705;-71
2023/07/05 11:54:54;;;;;;;1.40;1.40;;;22.50;72.10;;;;;;5086664;28;43367;-72
2023/07/05 11:57:24;;;;;;;1.77;1.77;;;22.60;71.90;;;;;;5084497;28;43372;-71
2023/07/05 12:00:02;;;;;;;1.33;1.33;;;22.70;71.40;;;;;;5085115;28;45632;-71
2023/07/05 12:02:39;;;;;;;1.40;1.40;;;22.80;71.10;;;;;;5083925;28;43442;-72
2023/07/05 12:05:10;;;;;;;1.37;1.37;;;22.90;70.70;;;;;;5083390;28;43513;-72
2023/07/05 12:07:38;;;;;;;1.40;1.40;;;22.90;70.60;;;;;;5087161;28;43372;-71
2023/07/05 12:10:07;;;;;;;1.30;1.30;;;22.80;70.50;;;;;;5086493;28;43759;-71
2023/07/05 12:12:40;;;;;;;1.43;1.40;;;22.80;70.70;;;;;;5086284;28;43414;-72
2023/07/05 12:15:10;;;;;;;1.50;1.50;;;22.70;71.10;;;;;;5081884;28;43395;-72
2023/07/05 12:17:38;;;;;;;1.40;1.40;;;22.70;71.20;;;;;;5086874;28;43407;-72
2023/07/05 12:20:11;;;;;;;1.40;1.40;;;22.60;70.90;;;;;;5086626;28;43603;-71
2023/07/05 12:22:39;;;;;;;1.50;1.50;;;22.60;70.90;;;;;;5084992;28;44953;-71
2023/07/05 12:25:08;;;;;;;1.40;1.40;;;22.60;71.80;;;;;;5086471;28;43478;-72
2023/07/05 12:27:36;;;;;;;1.33;1.20;;;22.60;71.80;;;;;;5086578;28;43478;-72
2023/07/05 12:30:16;;;;;;;1.37;1.37;;;22.50;71.40;;;;;;5084379;28;43730;-71
2023/07/05 12:32:48;;;;;;;1.47;1.47;;;22.50;71.30;;;;;;5086568;28;43435;-72
2023/07/05 12:35:20;;;;;;;1.43;1.43;;;22.50;71.40;;;;;;5086047;28;43421;-73
2023/07/05 12:37:49;;;;;;;1.20;1.20;;;22.50;72.10;;;;;;5080586;28;43363;-71
2023/07/05 12:40:30;;;;;;;1.30;1.30;;;22.50;71.90;;;;;;5086612;28;43669;-71
2023/07/05 12:42:59;;;;;;;1.10;1.10;;;22.50;71.50;;;;;;5086010;28;43487;-72
2023/07/05 12:45:30;;;;;;;1.50;1.27;;;22.50;71.50;;;;;;5086550;28;43514;-71
2023/07/05 12:47:58;;;;;;;1.37;1.37;;;22.40;72.10;;;;;;5086784;28;43431;-72
2023/07/05 12:50:26;;;;;;;1.33;1.33;;;22.50;72.20;;;;;;5084907;28;43669;-72
2023/07/05 12:53:06;;;;;;;1.30;1.30;;;22.60;71.70;;;;;;5085159;28;43439;-72
2023/07/05 12:55:36;;;;;;;1.67;1.67;;;22.70;71.20;;;;;;5085684;28;43384;-73
2023/07/05 12:58:04;;;;;;;1.30;1.30;;;22.80;70.70;;;;;;5085795;28;43679;-72
2023/07/05 13:00:34;;;;;;;1.50;1.50;;;22.90;70.40;;;;;;5084591;28;46111;-73
2023/07/05 13:03:04;;;;;;;1.37;1.37;;;22.90;70.30;;;;;;5085634;28;44079;-72
2023/07/05 13:05:33;;;;;;;1.30;1.30;;;22.90;70.30;;;;;;5084954;28;43451;-72